createdAt,value
2023-05-11T00:00:39.241Z,98440.28
2023-05-11T00:03:06.312Z,98433.53
2023-05-11T00:05:33.079Z,98428.91
2023-05-11T00:07:59.575Z,98429.44
2023-05-11T00:10:26.105Z,98429.72
2023-05-11T00:12:52.589Z,98423.50
2023-05-11T00:15:19.169Z,98422.38
2023-05-11T00:17:45.854Z,98418.63
2023-05-11T00:20:12.365Z,98423.69
2023-05-11T00:22:39.316Z,98418.56
2023-05-11T00:25:06.841Z,98417.97
2023-05-11T00:27:33.488Z,98414.50
2023-05-11T00:30:00.018Z,98416.19
2023-05-11T00:32:26.522Z,98406.16
2023-05-11T00:34:52.979Z,98414.28
2023-05-11T00:37:19.426Z,98409.09
2023-05-11T00:39:46.030Z,98400.72
2023-05-11T00:42:12.476Z,98402.59
2023-05-11T00:44:39.049Z,98398.03
2023-05-11T00:47:05.883Z,98403.47
2023-05-11T00:49:32.513Z,98398.84
2023-05-11T00:52:02.988Z,98394.75
2023-05-11T00:54:29.938Z,98393.13
2023-05-11T00:56:56.434Z,98392.59
2023-05-11T00:59:23.715Z,98384.75
2023-05-11T01:01:50.516Z,98385.81
2023-05-11T01:04:17.083Z,98394.72
2023-05-11T01:07:09.836Z,98389.09
2023-05-11T01:10:06.301Z,98399.88
2023-05-11T01:12:48.276Z,98399.63
2023-05-11T01:15:21.522Z,98388.25
2023-05-11T01:18:06.706Z,98404.19
2023-05-11T01:20:33.415Z,98399.09
2023-05-11T01:23:03.629Z,98404.22
2023-05-11T01:25:30.037Z,98406.63
2023-05-11T01:28:15.305Z,98403.16
2023-05-11T01:30:41.782Z,98409.31
2023-05-11T01:33:12.089Z,98405.78
2023-05-11T01:35:45.593Z,98411.97
2023-05-11T01:38:14.158Z,98410.94
2023-05-11T01:40:43.122Z,98407.16
2023-05-11T01:43:21.833Z,98404.28
2023-05-11T01:45:51.515Z,98403.97
2023-05-11T01:48:22.827Z,98405.88
2023-05-11T01:50:51.217Z,98402.63
2023-05-11T01:53:19.766Z,98396.44
2023-05-11T01:55:48.276Z,98400.19
2023-05-11T01:58:16.418Z,98402.91
2023-05-11T02:00:45.517Z,98402.88
2023-05-11T02:03:13.993Z,98402.00
2023-05-11T02:05:42.430Z,98401.94
2023-05-11T02:08:10.355Z,98404.66
2023-05-11T02:10:38.696Z,98400.50
2023-05-11T02:13:05.844Z,98408.44
2023-05-11T02:15:34.152Z,98404.88
2023-05-11T02:18:02.410Z,98403.50
2023-05-11T02:20:28.969Z,98404.38
2023-05-11T02:22:57.034Z,98410.78
2023-05-11T02:25:24.574Z,98408.66
2023-05-11T02:27:51.287Z,98406.59
2023-05-11T02:30:18.087Z,98405.09
2023-05-11T02:32:51.557Z,98405.06
2023-05-11T02:35:22.050Z,98401.03
2023-05-11T02:37:50.830Z,98401.03
2023-05-11T02:40:20.980Z,98399.88
2023-05-11T02:42:51.285Z,98398.81
2023-05-11T02:45:19.511Z,98400.94
2023-05-11T02:47:51.910Z,98399.91
2023-05-11T02:50:19.661Z,98399.94
2023-05-11T02:52:48.582Z,98391.75
2023-05-11T02:55:17.325Z,98392.59
2023-05-11T02:57:45.401Z,98386.38
2023-05-11T03:00:12.759Z,98396.03
2023-05-11T03:02:39.327Z,98391.84
2023-05-11T03:05:06.516Z,98392.19
2023-05-11T03:07:33.804Z,98387.34
2023-05-11T03:10:01.877Z,98397.28
2023-05-11T03:12:31.663Z,98389.38
2023-05-11T03:15:03.031Z,98390.00
2023-05-11T03:17:30.543Z,98385.13
2023-05-11T03:19:58.568Z,98380.38
2023-05-11T03:22:26.990Z,98373.94
2023-05-11T03:24:53.687Z,98377.13
2023-05-11T03:27:21.015Z,98376.75
2023-05-11T03:29:50.046Z,98372.47
2023-05-11T03:32:16.647Z,98376.00
2023-05-11T03:34:43.335Z,98378.69
2023-05-11T03:37:12.875Z,98374.97
2023-05-11T03:39:41.597Z,98380.06
2023-05-11T03:42:09.804Z,98369.22
2023-05-11T03:44:38.237Z,98370.81
2023-05-11T03:47:06.719Z,98371.13
2023-05-11T03:49:33.531Z,98375.38
2023-05-11T03:52:00.236Z,98375.44
2023-05-11T03:54:26.936Z,98375.66
2023-05-11T03:56:53.479Z,98360.88
2023-05-11T03:59:20.909Z,98367.25
2023-05-11T04:01:47.490Z,98374.25
2023-05-11T04:04:14.104Z,98366.94
2023-05-11T04:06:40.872Z,98364.09
2023-05-11T04:09:07.343Z,98365.69
2023-05-11T04:11:38.044Z,98367.81
2023-05-11T04:14:05.125Z,98358.66
2023-05-11T04:16:31.652Z,98372.22
2023-05-11T04:18:58.200Z,98367.00
2023-05-11T04:21:24.810Z,98361.63
2023-05-11T04:23:51.321Z,98365.72
2023-05-11T04:26:17.806Z,98374.63
2023-05-11T04:28:44.326Z,98365.97
2023-05-11T04:31:11.034Z,98364.66
2023-05-11T04:33:37.526Z,98364.19
2023-05-11T04:36:04.493Z,98368.94
2023-05-11T04:38:31.071Z,98372.75
2023-05-11T04:40:57.576Z,98377.63
2023-05-11T04:43:24.093Z,98370.34
2023-05-11T04:45:51.120Z,98369.91
2023-05-11T04:48:20.557Z,98371.44
2023-05-11T04:50:47.791Z,98371.75
2023-05-11T04:53:14.347Z,98378.22
2023-05-11T04:55:40.826Z,98368.06
2023-05-11T04:58:07.276Z,98369.13
2023-05-11T05:00:33.851Z,98368.81
2023-05-11T05:03:00.350Z,98374.53
2023-05-11T05:05:26.870Z,98379.97
2023-05-11T05:07:53.430Z,98379.22
2023-05-11T05:10:20.137Z,98382.97
2023-05-11T05:12:46.843Z,98381.91
2023-05-11T05:15:13.701Z,98381.91
2023-05-11T05:17:40.374Z,98387.59
2023-05-11T05:20:07.487Z,98390.38
2023-05-11T05:22:34.566Z,98384.22
2023-05-11T05:25:01.478Z,98386.44
2023-05-11T05:27:28.019Z,98389.97
2023-05-11T05:29:54.453Z,98384.59
2023-05-11T05:32:21.159Z,98386.72
2023-05-11T05:34:47.611Z,98391.56
2023-05-11T05:37:14.080Z,98393.22
2023-05-11T05:39:40.762Z,98387.84
2023-05-11T05:42:07.314Z,98388.63
2023-05-11T05:44:33.844Z,98389.22
2023-05-11T05:47:00.296Z,98381.94
2023-05-11T05:49:26.796Z,98383.53
2023-05-11T05:51:53.259Z,98385.19
2023-05-11T05:54:19.813Z,98389.50
2023-05-11T05:56:46.313Z,98390.09
2023-05-11T05:59:14.312Z,98384.47
2023-05-11T06:01:45.623Z,98381.50
2023-05-11T06:04:15.830Z,98384.75
2023-05-11T06:06:42.447Z,98383.09
2023-05-11T06:09:09.299Z,98379.34
2023-05-11T06:11:35.860Z,98382.63
2023-05-11T06:14:02.581Z,98385.06
2023-05-11T06:16:29.178Z,98388.84
2023-05-11T06:18:56.242Z,98387.47
2023-05-11T06:21:23.020Z,98384.78
2023-05-11T06:23:51.825Z,98387.75
2023-05-11T06:26:18.376Z,98374.75
2023-05-11T06:28:44.873Z,98373.41
2023-05-11T06:31:11.465Z,98376.13
2023-05-11T06:33:38.033Z,98372.38
2023-05-11T06:36:06.024Z,98376.66
2023-05-11T06:38:32.778Z,98373.16
2023-05-11T06:40:59.264Z,98370.19
2023-05-11T06:43:26.145Z,98369.63
2023-05-11T06:45:52.804Z,98372.63
2023-05-11T06:48:20.042Z,98373.16
2023-05-11T06:50:46.516Z,98369.91
2023-05-11T06:53:13.648Z,98372.59
2023-05-11T06:55:40.170Z,98366.94
2023-05-11T06:58:06.969Z,98365.00
2023-05-11T07:00:33.887Z,98360.41
2023-05-11T07:03:00.489Z,98365.28
2023-05-11T07:05:27.874Z,98366.91
2023-05-11T07:07:54.344Z,98365.56
2023-05-11T07:10:21.073Z,98375.03
2023-05-11T07:12:47.726Z,98367.97
2023-05-11T07:15:14.178Z,98367.94
2023-05-11T07:17:41.012Z,98365.78
2023-05-11T07:20:08.392Z,98364.94
2023-05-11T07:22:34.895Z,98374.28
2023-05-11T07:25:01.466Z,98366.13
2023-05-11T07:27:27.992Z,98363.94
2023-05-11T07:29:54.502Z,98364.81
2023-05-11T07:32:21.180Z,98365.34
2023-05-11T07:34:48.522Z,98357.47
2023-05-11T07:37:15.289Z,98364.50
2023-05-11T07:39:41.761Z,98367.75
2023-05-11T07:42:08.315Z,98370.41
2023-05-11T07:44:35.059Z,98361.53
2023-05-11T07:47:01.560Z,98359.38
2023-05-11T07:49:40.061Z,98366.72
2023-05-11T07:52:09.931Z,98352.25
2023-05-11T07:54:36.411Z,98354.16
2023-05-11T07:57:04.280Z,98365.06
2023-05-11T07:59:31.214Z,98357.72
2023-05-11T08:01:57.816Z,98358.91
2023-05-11T08:04:24.415Z,98355.75
2023-05-11T08:06:50.992Z,98359.31
2023-05-11T08:09:17.589Z,98366.22
2023-05-11T08:11:44.257Z,98361.34
2023-05-11T08:14:10.765Z,98349.50
2023-05-11T08:16:37.999Z,98349.50
2023-05-11T08:19:04.692Z,98350.88
2023-05-11T08:21:32.834Z,98356.59
2023-05-11T08:23:59.374Z,98356.19
2023-05-11T08:26:25.946Z,98346.25
2023-05-11T08:28:52.850Z,98346.34
2023-05-11T08:31:19.380Z,98357.00
2023-05-11T08:33:46.084Z,98353.19
2023-05-11T08:36:15.742Z,98346.72
2023-05-11T08:38:42.232Z,98346.66
2023-05-11T08:41:12.337Z,98343.44
2023-05-11T08:43:41.000Z,98347.22
2023-05-11T08:46:09.221Z,98343.88
2023-05-11T08:48:36.334Z,98342.94
2023-05-11T08:51:05.759Z,98342.88
2023-05-11T08:53:32.808Z,98337.97
2023-05-11T08:56:01.200Z,98339.31
2023-05-11T08:58:27.945Z,98333.09
2023-05-11T09:00:55.064Z,98339.91
2023-05-11T09:03:22.657Z,98336.41
2023-05-11T09:05:50.130Z,98333.97
2023-05-11T09:08:19.376Z,98332.44
2023-05-11T09:10:46.010Z,98336.88
2023-05-11T09:13:12.827Z,98341.53
2023-05-11T09:15:40.561Z,98336.44
2023-05-11T09:18:09.749Z,98342.41
2023-05-11T09:20:36.312Z,98334.84
2023-05-11T09:23:02.943Z,98344.69
2023-05-11T09:25:33.546Z,98344.22
2023-05-11T09:28:00.829Z,98335.31
2023-05-11T09:30:27.673Z,98336.66
2023-05-11T09:32:58.318Z,98344.22
2023-05-11T09:35:29.750Z,98326.13
2023-05-11T09:38:12.681Z,98334.75
2023-05-11T09:40:43.347Z,98342.56
2023-05-11T09:43:29.043Z,98349.50
2023-05-11T09:46:07.347Z,98346.69
2023-05-11T09:48:35.225Z,98353.16
2023-05-11T09:51:06.660Z,98343.75
2023-05-11T09:53:36.964Z,98343.25
2023-05-11T09:56:04.301Z,98341.38
2023-05-11T09:58:49.414Z,98339.84
2023-05-11T10:01:18.165Z,98336.63
2023-05-11T10:04:00.409Z,98333.94
2023-05-11T10:06:47.627Z,98339.88
2023-05-11T10:09:16.137Z,98329.06
2023-05-11T10:11:46.737Z,98325.56
2023-05-11T10:14:14.780Z,98330.72
2023-05-11T10:16:42.503Z,98328.00
2023-05-11T10:19:09.729Z,98333.91
2023-05-11T10:21:37.671Z,98321.44
2023-05-11T10:24:04.959Z,98323.78
2023-05-11T10:26:32.233Z,98318.22
2023-05-11T10:29:02.922Z,98322.72
2023-05-11T10:31:29.768Z,98312.66
2023-05-11T10:33:57.514Z,98312.44
2023-05-11T10:36:25.205Z,98313.56
2023-05-11T10:38:51.776Z,98304.16
2023-05-11T10:41:22.218Z,98310.84
2023-05-11T10:44:13.957Z,98305.19
2023-05-11T10:46:47.448Z,98300.44
2023-05-11T10:49:38.444Z,98298.13
2023-05-11T10:52:13.795Z,98294.97
2023-05-11T10:54:46.504Z,98296.94
2023-05-11T10:57:24.784Z,98279.19
2023-05-11T11:00:12.733Z,98283.00
2023-05-11T11:02:39.659Z,98277.50
2023-05-11T11:05:10.544Z,98273.63
2023-05-11T11:08:00.267Z,98281.09
2023-05-11T11:10:34.408Z,98280.75
2023-05-11T11:13:06.309Z,98284.47
2023-05-11T11:15:54.778Z,98279.28
2023-05-11T11:18:22.589Z,98277.09
2023-05-11T11:20:51.243Z,98272.91
2023-05-11T11:23:41.262Z,98275.28
2023-05-11T11:26:09.992Z,98270.53
2023-05-11T11:29:02.443Z,98268.31
2023-05-11T11:31:31.787Z,98261.19
2023-05-11T11:34:19.286Z,98254.47
2023-05-11T11:36:55.041Z,98246.91
2023-05-11T11:39:29.169Z,98249.09
2023-05-11T11:42:02.685Z,98251.03
2023-05-11T11:44:29.926Z,98247.94
2023-05-11T11:47:14.795Z,98241.50
2023-05-11T11:49:46.786Z,98237.03
2023-05-11T11:52:29.191Z,98229.94
2023-05-11T11:55:00.681Z,98242.84
2023-05-11T11:57:30.068Z,98239.31
2023-05-11T11:59:56.649Z,98251.44
2023-05-11T12:02:24.324Z,98240.88
2023-05-11T12:04:56.859Z,98239.16
2023-05-11T12:07:25.459Z,98239.34
2023-05-11T12:09:55.014Z,98242.84
2023-05-11T12:12:22.592Z,98237.22
2023-05-11T12:14:49.512Z,98246.13
2023-05-11T12:17:28.195Z,98242.06
2023-05-11T12:19:56.258Z,98244.59
2023-05-11T12:22:24.500Z,98253.44
2023-05-11T12:24:51.751Z,98245.13
2023-05-11T12:27:21.427Z,98243.00
2023-05-11T12:29:51.454Z,98241.00
2023-05-11T12:32:28.731Z,98241.69
2023-05-11T12:35:04.095Z,98235.06
2023-05-11T12:37:31.855Z,98231.78
2023-05-11T12:39:59.107Z,98237.94
2023-05-11T12:42:26.980Z,98229.63
2023-05-11T12:44:54.292Z,98225.41
2023-05-11T12:47:20.943Z,98226.63
2023-05-11T12:49:47.512Z,98231.84
2023-05-11T12:52:14.297Z,98219.31
2023-05-11T12:54:48.070Z,98226.44
2023-05-11T12:57:34.947Z,98212.97
2023-05-11T13:00:16.920Z,98208.25
2023-05-11T13:02:52.202Z,98200.41
2023-05-11T13:05:23.978Z,98199.63
2023-05-11T13:08:14.221Z,98202.38
2023-05-11T13:10:40.694Z,98202.88
2023-05-11T13:13:07.194Z,98209.31
2023-05-11T13:15:33.725Z,98202.78
2023-05-11T13:18:03.554Z,98201.03
2023-05-11T13:20:34.170Z,98195.88
2023-05-11T13:23:08.370Z,98196.97
2023-05-11T13:25:54.972Z,98195.84
2023-05-11T13:28:24.355Z,98200.34
2023-05-11T13:30:58.271Z,98200.34
2023-05-11T13:33:24.941Z,98200.22
2023-05-11T13:35:51.484Z,98201.91
2023-05-11T13:38:18.001Z,98202.28
2023-05-11T13:40:44.509Z,98197.41
2023-05-11T13:43:11.098Z,98193.16
2023-05-11T13:45:40.152Z,98198.44
2023-05-11T13:48:07.114Z,98203.44
2023-05-11T13:50:33.617Z,98201.44
2023-05-11T13:53:00.140Z,98196.94
2023-05-11T13:55:26.847Z,98206.75
2023-05-11T13:57:53.437Z,98202.31
2023-05-11T14:00:20.173Z,98189.75
2023-05-11T14:02:49.650Z,98183.66
2023-05-11T14:05:17.206Z,98181.59
2023-05-11T14:07:48.207Z,98183.28
2023-05-11T14:10:16.120Z,98187.47
2023-05-11T14:12:42.838Z,98187.19
2023-05-11T14:15:09.909Z,98181.44
2023-05-11T14:17:36.901Z,98182.56
2023-05-11T14:20:04.354Z,98176.84
2023-05-11T14:22:30.927Z,98181.84
2023-05-11T14:24:57.390Z,98181.41
2023-05-11T14:27:23.890Z,98183.41
2023-05-11T14:29:52.187Z,98175.19
2023-05-11T14:32:19.434Z,98175.34
2023-05-11T14:34:46.377Z,98175.25
2023-05-11T14:37:13.296Z,98173.22
2023-05-11T14:39:41.186Z,98176.59
2023-05-11T14:42:08.088Z,98175.38
2023-05-11T14:44:34.645Z,98168.69
2023-05-11T14:47:01.208Z,98164.00
2023-05-11T14:49:27.851Z,98160.88
2023-05-11T14:51:54.384Z,98161.53
2023-05-11T14:54:23.327Z,98154.09
2023-05-11T14:56:53.935Z,98158.03
2023-05-11T14:59:21.757Z,98158.75
2023-05-11T15:01:49.534Z,98155.09
2023-05-11T15:04:19.230Z,98150.16
2023-05-11T15:06:46.219Z,98149.88
2023-05-11T15:09:12.702Z,98150.69
2023-05-11T15:11:39.216Z,98153.31
2023-05-11T15:14:07.062Z,98152.00
2023-05-11T15:16:33.805Z,98155.81
2023-05-11T15:19:00.551Z,98148.97
2023-05-11T15:21:27.430Z,98150.88
2023-05-11T15:23:54.304Z,98147.94
2023-05-11T15:26:21.520Z,98144.44
2023-05-11T15:28:48.018Z,98149.75
2023-05-11T15:31:14.570Z,98156.31
2023-05-11T15:33:41.489Z,98146.94
2023-05-11T15:36:15.327Z,98156.31
2023-05-11T15:38:43.323Z,98152.47
2023-05-11T15:41:09.952Z,98167.22
2023-05-11T15:43:36.411Z,98162.44
2023-05-11T15:46:03.901Z,98172.81
2023-05-11T15:48:30.638Z,98169.97
2023-05-11T15:51:01.020Z,98173.22
2023-05-11T15:53:27.890Z,98165.56
2023-05-11T15:55:55.628Z,98158.59
2023-05-11T15:58:23.080Z,98163.97
2023-05-11T16:00:49.825Z,98170.25
2023-05-11T16:03:16.895Z,98165.69
2023-05-11T16:05:44.671Z,98156.09
2023-05-11T16:08:11.203Z,98163.56
2023-05-11T16:10:37.893Z,98162.06
2023-05-11T16:13:04.477Z,98158.81
2023-05-11T16:15:31.861Z,98165.69
2023-05-11T16:17:58.559Z,98165.63
2023-05-11T16:20:25.365Z,98158.00
2023-05-11T16:22:52.222Z,98165.53
2023-05-11T16:25:18.896Z,98164.59
2023-05-11T16:27:45.466Z,98162.53
2023-05-11T16:30:22.994Z,98163.91
2023-05-11T16:32:51.417Z,98163.13
2023-05-11T16:35:18.131Z,98167.41
2023-05-11T16:37:44.607Z,98168.81
2023-05-11T16:40:11.524Z,98160.88
2023-05-11T16:42:38.072Z,98167.91
2023-05-11T16:45:05.194Z,98169.16
2023-05-11T16:47:31.713Z,98164.31
2023-05-11T16:49:58.187Z,98167.63
2023-05-11T16:52:24.770Z,98169.84
2023-05-11T16:54:51.248Z,98164.19
2023-05-11T16:57:17.800Z,98178.47
2023-05-11T16:59:44.319Z,98172.72
2023-05-11T17:02:10.899Z,98160.84
2023-05-11T17:04:37.403Z,98169.94
2023-05-11T17:07:04.029Z,98162.13
2023-05-11T17:09:37.218Z,98161.06
2023-05-11T17:12:07.752Z,98160.56
2023-05-11T17:14:34.236Z,98160.38
2023-05-11T17:17:00.707Z,98160.25
2023-05-11T17:19:27.415Z,98161.66
2023-05-11T17:21:53.945Z,98160.88
2023-05-11T17:24:21.548Z,98163.56
2023-05-11T17:26:48.693Z,98160.28
2023-05-11T17:29:18.375Z,98160.63
2023-05-11T17:31:48.641Z,98164.69
2023-05-11T17:34:15.816Z,98176.63
2023-05-11T17:36:42.827Z,98173.88
2023-05-11T17:39:10.607Z,98185.22
2023-05-11T17:41:37.570Z,98180.97
2023-05-11T17:44:04.811Z,98182.28
2023-05-11T17:46:31.491Z,98178.78
2023-05-11T17:48:58.175Z,98186.09
2023-05-11T17:51:24.665Z,98183.91
2023-05-11T17:53:51.619Z,98182.03
2023-05-11T17:56:18.537Z,98183.09
2023-05-11T17:58:45.440Z,98186.13
2023-05-11T18:01:15.910Z,98192.06
2023-05-11T18:03:42.729Z,98183.16
2023-05-11T18:06:09.791Z,98190.97
2023-05-11T18:08:40.156Z,98193.97
2023-05-11T18:11:07.756Z,98193.38
2023-05-11T18:13:35.699Z,98199.06
2023-05-11T18:16:02.354Z,98193.72
2023-05-11T18:18:29.101Z,98191.53
2023-05-11T18:20:56.530Z,98191.81
2023-05-11T18:23:23.079Z,98200.97
2023-05-11T18:25:49.506Z,98199.88
2023-05-11T18:28:15.920Z,98197.75
2023-05-11T18:30:42.515Z,98205.88
2023-05-11T18:33:09.954Z,98197.22
2023-05-11T18:35:38.972Z,98199.94
2023-05-11T18:38:05.609Z,98202.09
2023-05-11T18:40:32.358Z,98205.59
2023-05-11T18:42:58.787Z,98210.75
2023-05-11T18:45:25.467Z,98206.41
2023-05-11T18:47:52.075Z,98205.09
2023-05-11T18:50:18.820Z,98204.25
2023-05-11T18:52:45.504Z,98205.34
2023-05-11T18:55:12.093Z,98214.50
2023-05-11T18:57:39.708Z,98212.91
2023-05-11T19:00:07.283Z,98221.00
2023-05-11T19:02:34.074Z,98221.53
2023-05-11T19:05:01.286Z,98218.28
2023-05-11T19:07:28.589Z,98219.91
2023-05-11T19:09:55.523Z,98221.53
2023-05-11T19:12:22.465Z,98223.69
2023-05-11T19:14:48.963Z,98215.84
2023-05-11T19:17:15.456Z,98223.69
2023-05-11T19:19:42.075Z,98230.16
2023-05-11T19:22:09.365Z,98230.94
2023-05-11T19:24:36.161Z,98234.47
2023-05-11T19:27:07.651Z,98212.06
2023-05-11T19:29:35.388Z,98235.56
2023-05-11T19:32:02.221Z,98230.09
2023-05-11T19:34:28.859Z,98233.34
2023-05-11T19:36:55.398Z,98228.25
2023-05-11T19:39:21.901Z,98234.72
2023-05-11T19:41:48.404Z,98233.09
2023-05-11T19:44:14.895Z,98237.13
2023-05-11T19:46:46.376Z,98238.22
2023-05-11T19:49:17.568Z,98244.16
2023-05-11T19:51:44.185Z,98247.34
2023-05-11T19:54:11.600Z,98245.47
2023-05-11T19:56:38.391Z,98245.47
2023-05-11T19:59:05.091Z,98254.38
2023-05-11T20:01:31.933Z,98264.69
2023-05-11T20:03:59.006Z,98255.22
2023-05-11T20:06:25.952Z,98260.09
2023-05-11T20:08:53.036Z,98262.81
2023-05-11T20:11:19.974Z,98270.66
2023-05-11T20:13:47.828Z,98274.41
2023-05-11T20:16:14.522Z,98276.59
2023-05-11T20:18:41.172Z,98274.13
2023-05-11T20:21:07.659Z,98269.84
2023-05-11T20:23:36.495Z,98267.94
2023-05-11T20:26:03.891Z,98270.91
2023-05-11T20:28:30.508Z,98281.91
2023-05-11T20:30:57.039Z,98275.91
2023-05-11T20:35:53.618Z,98269.81
2023-05-11T20:38:20.398Z,98265.03
2023-05-11T20:40:46.859Z,98254.78
2023-05-11T20:43:14.849Z,98257.72
2023-05-11T20:45:42.060Z,98262.78
2023-05-11T20:48:08.826Z,98262.13
2023-05-11T20:50:35.373Z,98254.84
2023-05-11T20:53:01.887Z,98263.75
2023-05-11T20:55:28.973Z,98260.53
2023-05-11T20:57:55.562Z,98267.00
2023-05-11T21:00:22.850Z,98262.19
2023-05-11T21:02:49.803Z,98262.19
2023-05-11T21:05:16.656Z,98269.75
2023-05-11T21:07:43.201Z,98269.47
2023-05-11T21:10:11.686Z,98263.53
2023-05-11T21:12:38.161Z,98266.25
2023-05-11T21:15:05.240Z,98270.28
2023-05-11T21:17:31.767Z,98269.81
2023-05-11T21:19:58.275Z,98264.69
2023-05-11T21:22:24.771Z,98269.22
2023-05-11T21:24:51.282Z,98264.38
2023-05-11T21:27:17.873Z,98259.03
2023-05-11T21:29:44.521Z,98264.41
2023-05-11T21:32:11.824Z,98264.88
2023-05-11T21:34:38.562Z,98262.47
2023-05-11T21:37:05.040Z,98261.69
2023-05-11T21:39:31.720Z,98268.69
2023-05-11T21:41:58.214Z,98273.53
2023-05-11T21:44:25.890Z,98264.38
2023-05-11T21:46:52.517Z,98266.03
2023-05-11T21:49:19.370Z,98264.34
2023-05-11T21:51:45.973Z,98262.13
2023-05-11T21:54:12.663Z,98261.59
2023-05-11T21:56:39.189Z,98251.34
2023-05-11T21:59:05.673Z,98265.88
2023-05-11T22:01:32.495Z,98263.22
2023-05-11T22:04:01.079Z,98260.13
2023-05-11T22:06:27.748Z,98256.13
2023-05-11T22:08:54.260Z,98261.44
2023-05-11T22:11:21.653Z,98257.63
2023-05-11T22:13:48.325Z,98264.31
2023-05-11T22:16:14.897Z,98260.03
2023-05-11T22:18:41.437Z,98260.00
2023-05-11T22:21:08.041Z,98260.00
2023-05-11T22:23:35.425Z,98259.66
2023-05-11T22:26:02.458Z,98251.81
2023-05-11T22:28:29.980Z,98260.19
2023-05-11T22:30:59.993Z,98256.97
2023-05-11T22:33:26.916Z,98255.28
2023-05-11T22:35:53.387Z,98258.84
2023-05-11T22:38:19.868Z,98254.28
2023-05-11T22:40:46.367Z,98255.09
2023-05-11T22:43:12.841Z,98255.66
2023-05-11T22:45:39.404Z,98248.97
2023-05-11T22:48:06.732Z,98254.69
2023-05-11T22:50:33.269Z,98255.72
2023-05-11T22:52:59.741Z,98249.69
2023-05-11T22:55:26.279Z,98251.81
2023-05-11T22:57:52.780Z,98249.69
2023-05-11T23:00:20.436Z,98243.50
2023-05-11T23:02:47.166Z,98250.75
2023-05-11T23:05:13.731Z,98242.56
2023-05-11T23:07:40.173Z,98234.50
2023-05-11T23:10:07.456Z,98239.06
2023-05-11T23:12:33.951Z,98242.25
2023-05-11T23:15:00.447Z,98240.63
2023-05-11T23:17:27.069Z,98250.00
2023-05-11T23:19:53.595Z,98237.16
2023-05-11T23:22:20.158Z,98237.22
2023-05-11T23:24:46.622Z,98238.00
2023-05-11T23:27:13.156Z,98240.44
2023-05-11T23:29:39.641Z,98239.88
2023-05-11T23:32:06.541Z,98238.84
2023-05-11T23:34:33.135Z,98228.53
2023-05-11T23:37:00.398Z,98237.09
2023-05-11T23:39:26.872Z,98237.03
2023-05-11T23:41:53.324Z,98235.38
2023-05-11T23:44:20.253Z,98230.00
2023-05-11T23:46:46.914Z,98235.72
2023-05-11T23:49:13.472Z,98235.38
2023-05-11T23:51:40.296Z,98244.69
2023-05-11T23:54:06.948Z,98244.13
2023-05-11T23:56:33.878Z,98241.72
2023-05-11T23:59:00.402Z,98244.41
